sensor_id;sensor_type;location;lat;lon;timestamp;P1;durP1;ratioP1;P2;durP2;ratioP2
39266;SDS011;24967;51.154;13.812;2023-05-06T00:00:09;5.70;;;5.20;;
39266;SDS011;24967;51.154;13.812;2023-05-06T00:02:36;6.38;;;5.07;;
39266;SDS011;24967;51.154;13.812;2023-05-06T00:05:03;6.40;;;5.78;;
39266;SDS011;24967;51.154;13.812;2023-05-06T00:07:30;9.15;;;5.65;;
39266;SDS011;24967;51.154;13.812;2023-05-06T00:09:56;5.88;;;5.15;;
39266;SDS011;24967;51.154;13.812;2023-05-06T00:12:23;6.70;;;5.60;;
39266;SDS011;24967;51.154;13.812;2023-05-06T00:14:50;7.00;;;5.80;;
39266;SDS011;24967;51.154;13.812;2023-05-06T00:17:17;5.90;;;5.40;;
39266;SDS011;24967;51.154;13.812;2023-05-06T00:19:43;7.53;;;5.03;;
39266;SDS011;24967;51.154;13.812;2023-05-06T00:22:10;5.95;;;5.35;;
39266;SDS011;24967;51.154;13.812;2023-05-06T00:24:36;6.60;;;5.63;;
39266;SDS011;24967;51.154;13.812;2023-05-06T00:27:02;6.72;;;5.80;;
39266;SDS011;24967;51.154;13.812;2023-05-06T00:29:29;8.77;;;6.18;;
39266;SDS011;24967;51.154;13.812;2023-05-06T00:31:56;8.48;;;6.57;;
39266;SDS011;24967;51.154;13.812;2023-05-06T00:34:23;8.48;;;6.75;;
39266;SDS011;24967;51.154;13.812;2023-05-06T00:36:49;8.18;;;6.43;;
39266;SDS011;24967;51.154;13.812;2023-05-06T00:39:16;11.73;;;6.93;;
39266;SDS011;24967;51.154;13.812;2023-05-06T00:41:42;9.40;;;7.28;;
39266;SDS011;24967;51.154;13.812;2023-05-06T00:44:09;9.73;;;7.85;;
39266;SDS011;24967;51.154;13.812;2023-05-06T00:46:35;8.73;;;7.80;;
39266;SDS011;24967;51.154;13.812;2023-05-06T00:49:03;9.82;;;7.55;;
39266;SDS011;24967;51.154;13.812;2023-05-06T00:51:30;8.38;;;7.47;;
39266;SDS011;24967;51.154;13.812;2023-05-06T00:53:57;10.30;;;7.30;;
39266;SDS011;24967;51.154;13.812;2023-05-06T00:56:24;9.50;;;8.27;;
39266;SDS011;24967;51.154;13.812;2023-05-06T00:58:50;11.93;;;8.18;;
39266;SDS011;24967;51.154;13.812;2023-05-06T01:01:17;8.68;;;7.82;;
39266;SDS011;24967;51.154;13.812;2023-05-06T01:03:43;10.85;;;8.40;;
39266;SDS011;24967;51.154;13.812;2023-05-06T01:06:13;12.23;;;8.27;;
39266;SDS011;24967;51.154;13.812;2023-05-06T01:08:46;8.70;;;7.68;;
39266;SDS011;24967;51.154;13.812;2023-05-06T01:11:24;10.52;;;7.63;;
39266;SDS011;24967;51.154;13.812;2023-05-06T01:13:55;9.55;;;8.25;;
39266;SDS011;24967;51.154;13.812;2023-05-06T01:16:26;11.45;;;8.57;;
39266;SDS011;24967;51.154;13.812;2023-05-06T01:18:54;12.38;;;8.77;;
39266;SDS011;24967;51.154;13.812;2023-05-06T01:21:25;10.30;;;8.50;;
39266;SDS011;24967;51.154;13.812;2023-05-06T01:23:59;8.63;;;7.78;;
39266;SDS011;24967;51.154;13.812;2023-05-06T01:26:26;10.50;;;7.47;;
39266;SDS011;24967;51.154;13.812;2023-05-06T01:28:52;12.25;;;7.50;;
39266;SDS011;24967;51.154;13.812;2023-05-06T01:31:22;8.50;;;7.60;;
39266;SDS011;24967;51.154;13.812;2023-05-06T01:33:53;9.90;;;7.28;;
39266;SDS011;24967;51.154;13.812;2023-05-06T01:36:31;8.57;;;7.30;;
39266;SDS011;24967;51.154;13.812;2023-05-06T01:39:07;10.68;;;7.82;;
39266;SDS011;24967;51.154;13.812;2023-05-06T01:41:38;9.75;;;7.38;;
39266;SDS011;24967;51.154;13.812;2023-05-06T01:44:06;8.85;;;7.80;;
39266;SDS011;24967;51.154;13.812;2023-05-06T01:46:33;8.20;;;7.10;;
39266;SDS011;24967;51.154;13.812;2023-05-06T01:49:01;12.50;;;8.07;;
39266;SDS011;24967;51.154;13.812;2023-05-06T01:51:31;8.73;;;7.78;;
39266;SDS011;24967;51.154;13.812;2023-05-06T01:53:58;10.13;;;7.97;;
39266;SDS011;24967;51.154;13.812;2023-05-06T01:56:26;9.80;;;8.00;;
39266;SDS011;24967;51.154;13.812;2023-05-06T01:58:54;10.45;;;7.55;;
39266;SDS011;24967;51.154;13.812;2023-05-06T02:01:20;10.25;;;8.68;;
39266;SDS011;24967;51.154;13.812;2023-05-06T02:03:47;10.45;;;8.18;;
39266;SDS011;24967;51.154;13.812;2023-05-06T02:06:13;9.88;;;7.90;;
39266;SDS011;24967;51.154;13.812;2023-05-06T02:08:40;9.98;;;8.20;;
39266;SDS011;24967;51.154;13.812;2023-05-06T02:11:07;8.57;;;7.63;;
39266;SDS011;24967;51.154;13.812;2023-05-06T02:13:34;9.65;;;7.60;;
39266;SDS011;24967;51.154;13.812;2023-05-06T02:16:01;9.55;;;8.00;;
39266;SDS011;24967;51.154;13.812;2023-05-06T02:18:27;9.13;;;8.18;;
39266;SDS011;24967;51.154;13.812;2023-05-06T02:20:54;8.18;;;6.97;;
39266;SDS011;24967;51.154;13.812;2023-05-06T02:23:20;8.95;;;8.10;;
39266;SDS011;24967;51.154;13.812;2023-05-06T02:25:47;10.35;;;7.80;;
39266;SDS011;24967;51.154;13.812;2023-05-06T02:28:14;8.98;;;7.93;;
39266;SDS011;24967;51.154;13.812;2023-05-06T02:30:41;9.93;;;8.30;;
39266;SDS011;24967;51.154;13.812;2023-05-06T02:33:08;8.88;;;8.07;;
39266;SDS011;24967;51.154;13.812;2023-05-06T02:35:34;10.38;;;8.10;;
39266;SDS011;24967;51.154;13.812;2023-05-06T02:38:01;10.65;;;7.72;;
39266;SDS011;24967;51.154;13.812;2023-05-06T02:40:28;11.43;;;7.88;;
39266;SDS011;24967;51.154;13.812;2023-05-06T02:42:54;9.32;;;8.00;;
39266;SDS011;24967;51.154;13.812;2023-05-06T02:45:21;9.27;;;7.93;;
39266;SDS011;24967;51.154;13.812;2023-05-06T02:47:49;9.70;;;7.95;;
39266;SDS011;24967;51.154;13.812;2023-05-06T02:50:15;9.00;;;7.63;;
39266;SDS011;24967;51.154;13.812;2023-05-06T02:52:42;9.15;;;8.13;;
39266;SDS011;24967;51.154;13.812;2023-05-06T02:55:08;9.43;;;8.05;;
39266;SDS011;24967;51.154;13.812;2023-05-06T02:57:35;8.77;;;7.63;;
39266;SDS011;24967;51.154;13.812;2023-05-06T03:00:02;9.00;;;7.50;;
39266;SDS011;24967;51.154;13.812;2023-05-06T03:02:30;8.77;;;7.85;;
39266;SDS011;24967;51.154;13.812;2023-05-06T03:04:57;10.23;;;8.25;;
39266;SDS011;24967;51.154;13.812;2023-05-06T03:07:24;11.00;;;7.63;;
39266;SDS011;24967;51.154;13.812;2023-05-06T03:09:50;10.02;;;7.97;;
39266;SDS011;24967;51.154;13.812;2023-05-06T03:12:17;9.65;;;7.07;;
39266;SDS011;24967;51.154;13.812;2023-05-06T03:14:43;9.98;;;7.15;;
39266;SDS011;24967;51.154;13.812;2023-05-06T03:17:09;12.00;;;8.02;;
39266;SDS011;24967;51.154;13.812;2023-05-06T03:19:36;11.40;;;8.35;;
39266;SDS011;24967;51.154;13.812;2023-05-06T03:22:04;8.90;;;7.93;;
39266;SDS011;24967;51.154;13.812;2023-05-06T03:24:30;8.88;;;7.88;;
39266;SDS011;24967;51.154;13.812;2023-05-06T03:26:56;10.48;;;8.32;;
39266;SDS011;24967;51.154;13.812;2023-05-06T03:29:23;9.93;;;8.20;;
39266;SDS011;24967;51.154;13.812;2023-05-06T03:31:50;8.90;;;8.02;;
39266;SDS011;24967;51.154;13.812;2023-05-06T03:34:16;9.88;;;8.18;;
39266;SDS011;24967;51.154;13.812;2023-05-06T03:36:44;10.02;;;8.90;;
39266;SDS011;24967;51.154;13.812;2023-05-06T03:39:12;9.60;;;7.78;;
39266;SDS011;24967;51.154;13.812;2023-05-06T03:41:38;11.68;;;9.35;;
39266;SDS011;24967;51.154;13.812;2023-05-06T03:44:05;10.98;;;8.65;;
39266;SDS011;24967;51.154;13.812;2023-05-06T03:46:31;9.98;;;8.75;;
39266;SDS011;24967;51.154;13.812;2023-05-06T03:48:58;13.43;;;9.32;;
39266;SDS011;24967;51.154;13.812;2023-05-06T03:51:26;10.90;;;9.55;;
39266;SDS011;24967;51.154;13.812;2023-05-06T03:53:53;13.45;;;9.15;;
39266;SDS011;24967;51.154;13.812;2023-05-06T03:56:21;9.27;;;8.27;;
39266;SDS011;24967;51.154;13.812;2023-05-06T03:58:48;11.57;;;8.88;;
39266;SDS011;24967;51.154;13.812;2023-05-06T04:01:14;11.95;;;9.35;;
39266;SDS011;24967;51.154;13.812;2023-05-06T04:03:42;11.60;;;9.40;;
39266;SDS011;24967;51.154;13.812;2023-05-06T04:06:08;13.40;;;8.95;;
39266;SDS011;24967;51.154;13.812;2023-05-06T04:08:35;9.43;;;8.10;;
39266;SDS011;24967;51.154;13.812;2023-05-06T04:11:04;9.35;;;8.45;;
39266;SDS011;24967;51.154;13.812;2023-05-06T04:13:33;9.10;;;8.10;;
39266;SDS011;24967;51.154;13.812;2023-05-06T04:15:59;8.88;;;7.88;;
39266;SDS011;24967;51.154;13.812;2023-05-06T04:18:26;10.00;;;8.38;;
39266;SDS011;24967;51.154;13.812;2023-05-06T04:20:53;9.13;;;8.18;;
39266;SDS011;24967;51.154;13.812;2023-05-06T04:23:19;9.23;;;8.15;;
39266;SDS011;24967;51.154;13.812;2023-05-06T04:25:45;10.30;;;8.60;;
39266;SDS011;24967;51.154;13.812;2023-05-06T04:28:14;14.27;;;9.35;;
39266;SDS011;24967;51.154;13.812;2023-05-06T04:30:43;10.70;;;8.65;;
39266;SDS011;24967;51.154;13.812;2023-05-06T04:33:09;9.43;;;8.25;;
39266;SDS011;24967;51.154;13.812;2023-05-06T04:35:36;9.60;;;8.07;;
39266;SDS011;24967;51.154;13.812;2023-05-06T04:38:03;9.32;;;8.25;;
39266;SDS011;24967;51.154;13.812;2023-05-06T04:40:30;12.73;;;8.32;;
39266;SDS011;24967;51.154;13.812;2023-05-06T04:42:59;9.38;;;8.10;;
39266;SDS011;24967;51.154;13.812;2023-05-06T04:45:26;8.38;;;7.68;;
39266;SDS011;24967;51.154;13.812;2023-05-06T04:47:55;12.07;;;8.70;;
39266;SDS011;24967;51.154;13.812;2023-05-06T04:50:21;12.00;;;9.52;;
39266;SDS011;24967;51.154;13.812;2023-05-06T04:52:47;9.55;;;8.55;;
39266;SDS011;24967;51.154;13.812;2023-05-06T04:55:14;13.23;;;9.63;;
39266;SDS011;24967;51.154;13.812;2023-05-06T04:57:41;10.50;;;9.35;;
39266;SDS011;24967;51.154;13.812;2023-05-06T05:00:07;11.55;;;9.48;;
39266;SDS011;24967;51.154;13.812;2023-05-06T05:02:35;10.05;;;9.05;;
39266;SDS011;24967;51.154;13.812;2023-05-06T05:05:03;11.55;;;9.38;;
39266;SDS011;24967;51.154;13.812;2023-05-06T05:07:29;13.50;;;10.48;;
39266;SDS011;24967;51.154;13.812;2023-05-06T05:09:56;10.73;;;9.32;;
39266;SDS011;24967;51.154;13.812;2023-05-06T05:12:22;14.15;;;10.48;;
39266;SDS011;24967;51.154;13.812;2023-05-06T05:14:49;14.00;;;10.30;;
39266;SDS011;24967;51.154;13.812;2023-05-06T05:17:15;18.17;;;14.38;;
39266;SDS011;24967;51.154;13.812;2023-05-06T05:19:42;20.88;;;15.23;;
39266;SDS011;24967;51.154;13.812;2023-05-06T05:22:09;21.40;;;16.27;;
39266;SDS011;24967;51.154;13.812;2023-05-06T05:24:36;23.77;;;18.02;;
39266;SDS011;24967;51.154;13.812;2023-05-06T05:27:02;29.25;;;20.60;;
39266;SDS011;24967;51.154;13.812;2023-05-06T05:29:29;31.85;;;22.17;;
39266;SDS011;24967;51.154;13.812;2023-05-06T05:31:55;28.60;;;20.35;;
39266;SDS011;24967;51.154;13.812;2023-05-06T05:34:22;31.02;;;20.65;;
39266;SDS011;24967;51.154;13.812;2023-05-06T05:36:48;32.00;;;20.90;;
39266;SDS011;24967;51.154;13.812;2023-05-06T05:39:16;27.25;;;20.73;;
39266;SDS011;24967;51.154;13.812;2023-05-06T05:41:42;29.92;;;22.13;;
39266;SDS011;24967;51.154;13.812;2023-05-06T05:44:09;32.35;;;23.17;;
39266;SDS011;24967;51.154;13.812;2023-05-06T05:46:35;31.63;;;22.58;;
39266;SDS011;24967;51.154;13.812;2023-05-06T05:49:02;30.70;;;21.90;;
39266;SDS011;24967;51.154;13.812;2023-05-06T05:51:28;31.90;;;23.40;;
39266;SDS011;24967;51.154;13.812;2023-05-06T05:53:54;36.15;;;23.05;;
39266;SDS011;24967;51.154;13.812;2023-05-06T05:56:22;33.65;;;24.05;;
39266;SDS011;24967;51.154;13.812;2023-05-06T05:58:49;37.53;;;25.50;;
39266;SDS011;24967;51.154;13.812;2023-05-06T06:01:15;34.95;;;24.38;;
39266;SDS011;24967;51.154;13.812;2023-05-06T06:03:42;38.90;;;24.90;;
39266;SDS011;24967;51.154;13.812;2023-05-06T06:06:08;44.35;;;28.15;;
39266;SDS011;24967;51.154;13.812;2023-05-06T06:08:35;49.05;;;29.55;;
39266;SDS011;24967;51.154;13.812;2023-05-06T06:11:01;46.72;;;29.00;;
39266;SDS011;24967;51.154;13.812;2023-05-06T06:13:31;44.03;;;29.27;;
39266;SDS011;24967;51.154;13.812;2023-05-06T06:15:57;44.38;;;29.10;;
39266;SDS011;24967;51.154;13.812;2023-05-06T06:18:24;48.45;;;30.88;;
39266;SDS011;24967;51.154;13.812;2023-05-06T06:20:51;51.15;;;32.08;;
39266;SDS011;24967;51.154;13.812;2023-05-06T06:23:17;58.60;;;32.00;;
39266;SDS011;24967;51.154;13.812;2023-05-06T06:25:43;53.15;;;32.25;;
39266;SDS011;24967;51.154;13.812;2023-05-06T06:28:10;52.92;;;32.13;;
39266;SDS011;24967;51.154;13.812;2023-05-06T06:30:37;51.28;;;32.05;;
39266;SDS011;24967;51.154;13.812;2023-05-06T06:33:04;53.42;;;32.58;;
39266;SDS011;24967;51.154;13.812;2023-05-06T06:35:30;48.60;;;31.17;;
39266;SDS011;24967;51.154;13.812;2023-05-06T06:37:57;48.20;;;30.83;;
39266;SDS011;24967;51.154;13.812;2023-05-06T06:40:23;52.53;;;32.55;;
39266;SDS011;24967;51.154;13.812;2023-05-06T06:42:50;50.33;;;32.70;;
39266;SDS011;24967;51.154;13.812;2023-05-06T06:45:16;45.35;;;30.90;;
39266;SDS011;24967;51.154;13.812;2023-05-06T06:47:45;51.28;;;33.65;;
39266;SDS011;24967;51.154;13.812;2023-05-06T06:50:11;50.25;;;32.60;;
39266;SDS011;24967;51.154;13.812;2023-05-06T06:52:37;49.63;;;33.28;;
39266;SDS011;24967;51.154;13.812;2023-05-06T06:55:04;48.58;;;33.42;;
39266;SDS011;24967;51.154;13.812;2023-05-06T06:57:31;49.45;;;32.45;;
39266;SDS011;24967;51.154;13.812;2023-05-06T06:59:57;50.92;;;32.33;;
39266;SDS011;24967;51.154;13.812;2023-05-06T07:02:24;49.70;;;31.92;;
39266;SDS011;24967;51.154;13.812;2023-05-06T07:04:52;43.72;;;30.45;;
39266;SDS011;24967;51.154;13.812;2023-05-06T07:07:19;43.15;;;29.80;;
39266;SDS011;24967;51.154;13.812;2023-05-06T07:09:45;44.88;;;31.35;;
39266;SDS011;24967;51.154;13.812;2023-05-06T07:12:11;45.28;;;32.08;;
39266;SDS011;24967;51.154;13.812;2023-05-06T07:14:38;41.10;;;29.33;;
39266;SDS011;24967;51.154;13.812;2023-05-06T07:17:05;39.08;;;28.52;;
39266;SDS011;24967;51.154;13.812;2023-05-06T07:19:31;41.78;;;30.35;;
39266;SDS011;24967;51.154;13.812;2023-05-06T07:21:59;38.28;;;29.63;;
39266;SDS011;24967;51.154;13.812;2023-05-06T07:24:26;38.42;;;27.77;;
39266;SDS011;24967;51.154;13.812;2023-05-06T07:26:53;40.65;;;27.95;;
39266;SDS011;24967;51.154;13.812;2023-05-06T07:29:20;37.97;;;28.13;;
39266;SDS011;24967;51.154;13.812;2023-05-06T07:31:46;36.35;;;26.73;;
39266;SDS011;24967;51.154;13.812;2023-05-06T07:34:12;35.00;;;26.02;;
39266;SDS011;24967;51.154;13.812;2023-05-06T07:36:39;35.72;;;26.35;;
39266;SDS011;24967;51.154;13.812;2023-05-06T07:39:08;40.92;;;27.30;;
39266;SDS011;24967;51.154;13.812;2023-05-06T07:41:35;39.08;;;27.55;;
39266;SDS011;24967;51.154;13.812;2023-05-06T07:44:01;38.67;;;28.63;;
39266;SDS011;24967;51.154;13.812;2023-05-06T07:46:28;40.97;;;27.00;;
39266;SDS011;24967;51.154;13.812;2023-05-06T07:48:55;44.13;;;26.85;;
39266;SDS011;24967;51.154;13.812;2023-05-06T07:51:21;40.10;;;28.10;;
39266;SDS011;24967;51.154;13.812;2023-05-06T07:53:47;41.92;;;28.75;;
39266;SDS011;24967;51.154;13.812;2023-05-06T07:56:16;42.20;;;28.40;;
39266;SDS011;24967;51.154;13.812;2023-05-06T07:58:42;43.75;;;29.55;;
39266;SDS011;24967;51.154;13.812;2023-05-06T08:01:09;43.80;;;30.05;;
39266;SDS011;24967;51.154;13.812;2023-05-06T08:03:35;46.42;;;30.40;;
39266;SDS011;24967;51.154;13.812;2023-05-06T08:06:02;46.72;;;29.58;;
39266;SDS011;24967;51.154;13.812;2023-05-06T08:08:28;42.42;;;28.95;;
39266;SDS011;24967;51.154;13.812;2023-05-06T08:10:56;44.10;;;27.58;;
39266;SDS011;24967;51.154;13.812;2023-05-06T08:13:24;39.65;;;27.05;;
39266;SDS011;24967;51.154;13.812;2023-05-06T08:15:52;34.08;;;24.10;;
39266;SDS011;24967;51.154;13.812;2023-05-06T08:18:18;28.90;;;20.52;;
39266;SDS011;24967;51.154;13.812;2023-05-06T08:20:45;33.40;;;23.27;;
39266;SDS011;24967;51.154;13.812;2023-05-06T08:23:11;31.63;;;21.65;;
39266;SDS011;24967;51.154;13.812;2023-05-06T08:25:38;30.38;;;20.58;;
39266;SDS011;24967;51.154;13.812;2023-05-06T08:28:04;36.97;;;22.45;;
39266;SDS011;24967;51.154;13.812;2023-05-06T08:30:32;32.40;;;21.17;;
39266;SDS011;24967;51.154;13.812;2023-05-06T08:32:58;29.00;;;21.17;;
39266;SDS011;24967;51.154;13.812;2023-05-06T08:35:25;27.98;;;21.13;;
39266;SDS011;24967;51.154;13.812;2023-05-06T08:37:51;32.03;;;21.75;;
39266;SDS011;24967;51.154;13.812;2023-05-06T08:40:18;31.70;;;21.98;;
39266;SDS011;24967;51.154;13.812;2023-05-06T08:42:48;34.90;;;23.13;;
39266;SDS011;24967;51.154;13.812;2023-05-06T08:45:15;32.47;;;21.48;;
39266;SDS011;24967;51.154;13.812;2023-05-06T08:47:44;29.77;;;21.30;;
39266;SDS011;24967;51.154;13.812;2023-05-06T08:50:11;31.17;;;21.23;;
39266;SDS011;24967;51.154;13.812;2023-05-06T08:52:37;30.10;;;21.45;;
39266;SDS011;24967;51.154;13.812;2023-05-06T08:55:05;28.52;;;20.45;;
39266;SDS011;24967;51.154;13.812;2023-05-06T08:57:32;37.35;;;23.73;;
39266;SDS011;24967;51.154;13.812;2023-05-06T09:00:00;39.22;;;25.90;;
39266;SDS011;24967;51.154;13.812;2023-05-06T09:02:28;43.80;;;35.30;;
39266;SDS011;24967;51.154;13.812;2023-05-06T09:04:56;37.10;;;23.92;;
39266;SDS011;24967;51.154;13.812;2023-05-06T09:07:23;34.58;;;23.00;;
39266;SDS011;24967;51.154;13.812;2023-05-06T09:09:49;36.65;;;23.50;;
39266;SDS011;24967;51.154;13.812;2023-05-06T09:12:16;37.05;;;24.45;;
39266;SDS011;24967;51.154;13.812;2023-05-06T09:14:43;38.13;;;23.95;;
39266;SDS011;24967;51.154;13.812;2023-05-06T09:17:16;36.10;;;24.40;;
39266;SDS011;24967;51.154;13.812;2023-05-06T09:19:49;35.97;;;23.15;;
39266;SDS011;24967;51.154;13.812;2023-05-06T09:22:18;39.22;;;23.98;;
39266;SDS011;24967;51.154;13.812;2023-05-06T09:24:46;39.10;;;24.27;;
39266;SDS011;24967;51.154;13.812;2023-05-06T09:27:20;36.20;;;24.95;;
39266;SDS011;24967;51.154;13.812;2023-05-06T09:29:58;71.30;;;43.33;;
39266;SDS011;24967;51.154;13.812;2023-05-06T09:32:25;38.92;;;26.83;;
39266;SDS011;24967;51.154;13.812;2023-05-06T09:34:52;39.47;;;27.55;;
39266;SDS011;24967;51.154;13.812;2023-05-06T09:37:20;39.83;;;26.23;;
39266;SDS011;24967;51.154;13.812;2023-05-06T09:39:46;41.30;;;26.70;;
39266;SDS011;24967;51.154;13.812;2023-05-06T09:42:13;41.08;;;26.92;;
39266;SDS011;24967;51.154;13.812;2023-05-06T09:44:41;40.08;;;25.02;;
39266;SDS011;24967;51.154;13.812;2023-05-06T09:47:07;37.25;;;24.42;;
39266;SDS011;24967;51.154;13.812;2023-05-06T09:49:34;35.05;;;23.95;;
39266;SDS011;24967;51.154;13.812;2023-05-06T09:52:00;37.25;;;22.67;;
39266;SDS011;24967;51.154;13.812;2023-05-06T09:54:28;35.55;;;22.10;;
39266;SDS011;24967;51.154;13.812;2023-05-06T09:56:55;34.15;;;24.90;;
39266;SDS011;24967;51.154;13.812;2023-05-06T09:59:22;34.53;;;24.55;;
39266;SDS011;24967;51.154;13.812;2023-05-06T10:01:50;32.75;;;25.70;;
39266;SDS011;24967;51.154;13.812;2023-05-06T10:04:17;41.03;;;26.23;;
39266;SDS011;24967;51.154;13.812;2023-05-06T10:06:44;37.58;;;25.77;;
39266;SDS011;24967;51.154;13.812;2023-05-06T10:09:13;31.88;;;22.00;;
39266;SDS011;24967;51.154;13.812;2023-05-06T10:11:41;32.67;;;22.20;;
39266;SDS011;24967;51.154;13.812;2023-05-06T10:14:10;31.58;;;21.02;;
39266;SDS011;24967;51.154;13.812;2023-05-06T10:16:37;34.55;;;22.50;;
39266;SDS011;24967;51.154;13.812;2023-05-06T10:19:06;32.97;;;22.38;;
39266;SDS011;24967;51.154;13.812;2023-05-06T10:21:33;30.67;;;21.20;;
39266;SDS011;24967;51.154;13.812;2023-05-06T10:24:04;32.70;;;22.58;;
39266;SDS011;24967;51.154;13.812;2023-05-06T10:26:33;34.25;;;22.50;;
39266;SDS011;24967;51.154;13.812;2023-05-06T10:29:03;34.75;;;21.33;;
39266;SDS011;24967;51.154;13.812;2023-05-06T10:31:32;35.50;;;22.45;;
39266;SDS011;24967;51.154;13.812;2023-05-06T10:34:01;32.72;;;21.90;;
39266;SDS011;24967;51.154;13.812;2023-05-06T10:36:31;32.60;;;21.45;;
39266;SDS011;24967;51.154;13.812;2023-05-06T10:39:01;39.03;;;23.40;;
39266;SDS011;24967;51.154;13.812;2023-05-06T10:41:29;35.85;;;24.17;;
39266;SDS011;24967;51.154;13.812;2023-05-06T10:43:57;34.00;;;22.77;;
39266;SDS011;24967;51.154;13.812;2023-05-06T10:46:25;36.88;;;24.48;;
39266;SDS011;24967;51.154;13.812;2023-05-06T10:49:15;35.13;;;23.95;;
39266;SDS011;24967;51.154;13.812;2023-05-06T10:51:42;35.58;;;24.20;;
39266;SDS011;24967;51.154;13.812;2023-05-06T10:54:09;34.63;;;23.48;;
39266;SDS011;24967;51.154;13.812;2023-05-06T10:56:36;32.58;;;23.17;;
39266;SDS011;24967;51.154;13.812;2023-05-06T10:59:05;36.70;;;23.08;;
39266;SDS011;24967;51.154;13.812;2023-05-06T11:01:34;36.45;;;23.35;;
39266;SDS011;24967;51.154;13.812;2023-05-06T11:04:04;35.20;;;24.10;;
39266;SDS011;24967;51.154;13.812;2023-05-06T11:06:32;34.97;;;22.58;;
39266;SDS011;24967;51.154;13.812;2023-05-06T11:09:00;37.00;;;23.45;;
39266;SDS011;24967;51.154;13.812;2023-05-06T11:14:24;35.67;;;24.13;;
39266;SDS011;24967;51.154;13.812;2023-05-06T11:16:54;35.03;;;23.08;;
39266;SDS011;24967;51.154;13.812;2023-05-06T11:19:22;34.15;;;24.40;;
39266;SDS011;24967;51.154;13.812;2023-05-06T11:21:49;36.00;;;23.40;;
39266;SDS011;24967;51.154;13.812;2023-05-06T11:24:24;34.05;;;24.38;;
39266;SDS011;24967;51.154;13.812;2023-05-06T11:26:52;33.47;;;24.27;;
39266;SDS011;24967;51.154;13.812;2023-05-06T11:29:19;35.85;;;24.50;;
39266;SDS011;24967;51.154;13.812;2023-05-06T11:31:46;34.22;;;24.75;;
39266;SDS011;24967;51.154;13.812;2023-05-06T11:34:19;37.33;;;24.33;;
39266;SDS011;24967;51.154;13.812;2023-05-06T11:36:51;34.20;;;23.63;;
39266;SDS011;24967;51.154;13.812;2023-05-06T11:39:20;36.67;;;24.55;;
39266;SDS011;24967;51.154;13.812;2023-05-06T11:41:47;34.92;;;23.25;;
39266;SDS011;24967;51.154;13.812;2023-05-06T11:44:22;32.45;;;22.67;;
39266;SDS011;24967;51.154;13.812;2023-05-06T11:46:50;34.40;;;22.77;;
39266;SDS011;24967;51.154;13.812;2023-05-06T11:49:18;36.50;;;23.80;;
39266;SDS011;24967;51.154;13.812;2023-05-06T11:51:46;36.20;;;23.55;;
39266;SDS011;24967;51.154;13.812;2023-05-06T11:54:13;35.90;;;23.20;;
39266;SDS011;24967;51.154;13.812;2023-05-06T11:56:43;33.33;;;22.83;;
39266;SDS011;24967;51.154;13.812;2023-05-06T11:59:11;29.63;;;22.50;;
39266;SDS011;24967;51.154;13.812;2023-05-06T12:01:39;47.88;;;25.45;;
39266;SDS011;24967;51.154;13.812;2023-05-06T12:04:06;31.88;;;21.60;;
39266;SDS011;24967;51.154;13.812;2023-05-06T12:06:34;30.10;;;21.88;;
39266;SDS011;24967;51.154;13.812;2023-05-06T12:09:01;29.25;;;20.75;;
39266;SDS011;24967;51.154;13.812;2023-05-06T12:11:29;31.48;;;21.20;;
39266;SDS011;24967;51.154;13.812;2023-05-06T12:13:56;29.65;;;20.58;;
39266;SDS011;24967;51.154;13.812;2023-05-06T12:16:22;27.50;;;19.45;;
39266;SDS011;24967;51.154;13.812;2023-05-06T12:18:50;30.55;;;20.10;;
39266;SDS011;24967;51.154;13.812;2023-05-06T12:21:20;26.05;;;19.63;;
39266;SDS011;24967;51.154;13.812;2023-05-06T12:23:51;26.90;;;18.92;;
39266;SDS011;24967;51.154;13.812;2023-05-06T12:26:18;26.10;;;18.88;;
39266;SDS011;24967;51.154;13.812;2023-05-06T12:28:46;22.80;;;18.17;;
39266;SDS011;24967;51.154;13.812;2023-05-06T12:31:28;27.40;;;17.80;;
39266;SDS011;24967;51.154;13.812;2023-05-06T12:33:54;24.67;;;17.98;;
39266;SDS011;24967;51.154;13.812;2023-05-06T12:36:21;23.20;;;16.42;;
39266;SDS011;24967;51.154;13.812;2023-05-06T12:38:52;25.35;;;16.60;;
39266;SDS011;24967;51.154;13.812;2023-05-06T12:41:19;18.77;;;15.52;;
39266;SDS011;24967;51.154;13.812;2023-05-06T12:43:46;17.80;;;14.32;;
39266;SDS011;24967;51.154;13.812;2023-05-06T12:46:13;20.33;;;15.60;;
39266;SDS011;24967;51.154;13.812;2023-05-06T12:48:45;18.92;;;14.18;;
39266;SDS011;24967;51.154;13.812;2023-05-06T12:51:21;17.55;;;14.45;;
39266;SDS011;24967;51.154;13.812;2023-05-06T12:53:48;17.75;;;13.77;;
39266;SDS011;24967;51.154;13.812;2023-05-06T12:56:16;18.88;;;14.05;;
39266;SDS011;24967;51.154;13.812;2023-05-06T12:58:42;21.02;;;13.73;;
39266;SDS011;24967;51.154;13.812;2023-05-06T13:01:09;18.80;;;14.07;;
39266;SDS011;24967;51.154;13.812;2023-05-06T13:03:35;16.42;;;13.40;;
39266;SDS011;24967;51.154;13.812;2023-05-06T13:06:04;19.23;;;13.77;;
39266;SDS011;24967;51.154;13.812;2023-05-06T13:08:31;17.75;;;14.25;;
39266;SDS011;24967;51.154;13.812;2023-05-06T13:10:57;16.58;;;12.98;;
39266;SDS011;24967;51.154;13.812;2023-05-06T13:13:27;23.83;;;17.00;;
39266;SDS011;24967;51.154;13.812;2023-05-06T13:15:54;21.85;;;15.85;;
39266;SDS011;24967;51.154;13.812;2023-05-06T13:18:21;21.30;;;15.75;;
39266;SDS011;24967;51.154;13.812;2023-05-06T13:20:47;23.08;;;16.23;;
39266;SDS011;24967;51.154;13.812;2023-05-06T13:23:14;22.80;;;15.85;;
39266;SDS011;24967;51.154;13.812;2023-05-06T13:25:40;23.15;;;16.80;;
39266;SDS011;24967;51.154;13.812;2023-05-06T13:28:07;24.27;;;16.63;;
39266;SDS011;24967;51.154;13.812;2023-05-06T13:30:35;26.85;;;17.38;;
39266;SDS011;24967;51.154;13.812;2023-05-06T13:33:01;25.30;;;16.40;;
39266;SDS011;24967;51.154;13.812;2023-05-06T13:35:28;25.98;;;16.45;;
39266;SDS011;24967;51.154;13.812;2023-05-06T13:37:54;22.73;;;16.73;;
39266;SDS011;24967;51.154;13.812;2023-05-06T13:40:20;26.98;;;16.33;;
39266;SDS011;24967;51.154;13.812;2023-05-06T13:42:47;24.73;;;15.90;;
39266;SDS011;24967;51.154;13.812;2023-05-06T13:45:13;23.83;;;15.10;;
39266;SDS011;24967;51.154;13.812;2023-05-06T13:47:41;32.55;;;23.85;;
39266;SDS011;24967;51.154;13.812;2023-05-06T13:50:08;28.45;;;19.75;;
39266;SDS011;24967;51.154;13.812;2023-05-06T13:52:35;32.08;;;19.98;;
39266;SDS011;24967;51.154;13.812;2023-05-06T13:55:02;27.88;;;16.65;;
39266;SDS011;24967;51.154;13.812;2023-05-06T13:57:29;25.90;;;16.60;;
39266;SDS011;24967;51.154;13.812;2023-05-06T13:59:55;24.60;;;16.90;;
39266;SDS011;24967;51.154;13.812;2023-05-06T14:02:21;27.25;;;16.75;;
39266;SDS011;24967;51.154;13.812;2023-05-06T14:04:49;26.45;;;16.92;;
39266;SDS011;24967;51.154;13.812;2023-05-06T14:07:16;26.50;;;16.10;;
39266;SDS011;24967;51.154;13.812;2023-05-06T14:09:43;24.13;;;16.63;;
39266;SDS011;24967;51.154;13.812;2023-05-06T14:12:09;25.80;;;16.98;;
39266;SDS011;24967;51.154;13.812;2023-05-06T14:14:36;27.02;;;16.20;;
39266;SDS011;24967;51.154;13.812;2023-05-06T14:17:02;28.27;;;18.10;;
39266;SDS011;24967;51.154;13.812;2023-05-06T14:19:28;29.48;;;18.23;;